WetterOnline ( http://www.wetteronline.de )

Wetter aktuell Großer Arber

Aktuelles Wetter: Großer Arber (1446m)

6-stündlich | Neueste Meldungen
Ortszeit Temperatur Wetter
Di, 28.02. 1:00 3.9° C bedeckt
Mo, 27.02. 19:00 4.3° C wolkenlos
Mo, 27.02. 13:00 5.0° C wolkig
Mo, 27.02. 7:00 0.4° C wolkenlos
Ortszeit Temperatur Wetter
Di, 28.02. 4:00 4.0° C bedeckt
Di, 28.02. 3:30 3.9° C bedeckt
Di, 28.02. 3:00 3.9° C bedeckt
Di, 28.02. 2:30 4.2° C bedeckt
Di, 28.02. 2:00 3.1° C bedeckt
Di, 28.02. 1:30 3.5° C bedeckt
Ortszeit Relative Feuchte Sichtweite
Di, 28.02. 1:00 57% 10 km
Mo, 27.02. 19:00 48% 10 km
Mo, 27.02. 13:00 57% 10 km
Mo, 27.02. 7:00 62% 10 km
Ortszeit Relative Feuchte Sichtweite
Di, 28.02. 4:00 58% 10 km
Di, 28.02. 3:30 59% 10 km
Di, 28.02. 3:00 59% 10 km
Di, 28.02. 2:30 57% 10 km
Di, 28.02. 2:00 62% 10 km
Di, 28.02. 1:30 61% 10 km
Ortszeit Niederschlagsmenge Niederschlagsart
Di, 28.02. 1:00 0,0 l/m2 in 6 Std. -
Mo, 27.02. 19:00 0,0 l/m2 in 12 Std. -
Mo, 27.02. 13:00 0,0 l/m2 in 6 Std. -
Mo, 27.02. 7:00 0,0 l/m2 in 12 Std. -
Ortszeit Niederschlagsmenge Niederschlagsart
Di, 28.02. 4:00 0,0 l/m2 in 1 Std. -
Di, 28.02. 3:30 keine Meldung -
Di, 28.02. 3:00 0,0 l/m2 in 1 Std. -
Di, 28.02. 2:30 keine Meldung -
Di, 28.02. 2:00 0,0 l/m2 in 1 Std. -
Di, 28.02. 1:30 keine Meldung -
Ortszeit Stärke Spitze Richtung
km/h Bft. km/h Grad Sektor
Di, 28.02. 1:00 20 4 35 200° S
Mo, 27.02. 19:00 22 4 25 190° S
Mo, 27.02. 13:00 15 3 31 210° SW
Mo, 27.02. 7:00 28 4 43 210° SW
Ortszeit Stärke Spitze Richtung
km/h Bft. km/h Grad Sektor
Di, 28.02. 4:00 22 4 40 190° S
Di, 28.02. 3:30 20 4 37 220° SW
Di, 28.02. 3:00 24 4 33 230° SW
Di, 28.02. 2:30 25 4 32 230° SW
Di, 28.02. 2:00 25 4 32 190° S
Di, 28.02. 1:30 22 4 30 190° S
Ortszeit Untergrenze Bedeckung Gattung
total tief tief mittel hoch
Di, 28.02. 1:00 4500 m 8/8 8/8 - - -
Mo, 27.02. 19:00 - 0/8 0/8 - - -
Mo, 27.02. 13:00 2100 m 8/8 2/8 - - -
Mo, 27.02. 7:00 - 0/8 0/8 - - -
Ortszeit Bedeckungsgrad in Achtel und Wolkenuntergrenze
Di, 28.02. 4:00 8(3600m) 8(6000m) 8(6900m)
Di, 28.02. 3:30 6(3900m) 7(5700m) 8(6600m)
Di, 28.02. 3:00 5(5100m) 8(6600m)
Di, 28.02. 2:30 1(4800m) 8(5700m)
Di, 28.02. 2:00 8(6300m) 8(9000m)
Di, 28.02. 1:30 5(5700m) 8(6300m)
Ortszeit Stationsdruck (hPa) Tendenz (hPa in 3 Std.)
Di, 28.02. 1:00 840 - 1,2
Mo, 27.02. 19:00 843 - 1,5
Mo, 27.02. 13:00 846 - 1,6
Mo, 27.02. 7:00 849 - 1,1
Ortszeit Stationsdruck (hPa) Tendenz (hPa in 3 Std.)
Di, 28.02. 4:00 837 - 2,6
Di, 28.02. 3:30 838 - 2,3
Di, 28.02. 3:00 839 - 2,0
Di, 28.02. 2:30 839 - 1,5
Di, 28.02. 2:00 840 - 1,3
Di, 28.02. 1:30 840 - 1,2
Ortszeit Schneehöhe (cm)
Di, 28.02. 1:00 -
Mo, 27.02. 19:00 -
Mo, 27.02. 13:00 -
Mo, 27.02. 7:00 -
Ortszeit Schneehöhe (cm)
Di, 28.02. 4:00 -
Di, 28.02. 3:30 -
Di, 28.02. 3:00 -
Di, 28.02. 2:30 -
Di, 28.02. 2:00 -
Di, 28.02. 1:30 -
Link zu dieser Seite / Seite empfehlen

Das Wetter in ...